Time;durP1;ratioP1;P1;durP2;ratioP2;P2;SDS_P1;SDS_P2;PMS_P1;PMS_P2;Temp;Humidity;BMP_temperature;BMP_pressure;BME280_temperature;BME280_humidity;BME280_pressure;Samples;Min_cycle;Max_cycle;Signal;HPM_P1;HPM_P2
2021/03/21 00:01:35;;;;;;;9.00;6.38;;;6.10;99.70;;;;;;5029762;28;20053;-76
2021/03/21 00:04:00;;;;;;;5.82;5.25;;;6.10;99.40;;;;;;5016907;28;20489;-77
2021/03/21 00:06:26;;;;;;;9.55;5.75;;;6.10;99.30;;;;;;5020456;28;20045;-77
2021/03/21 00:08:52;;;;;;;10.65;6.93;;;6.10;99.30;;;;;;5022430;28;20041;-77
2021/03/21 00:11:19;;;;;;;10.75;6.40;;;6.10;99.30;;;;;;5028799;28;20105;-77
2021/03/21 00:13:46;;;;;;;8.05;5.75;;;6.20;99.40;;;;;;5020425;28;20041;-77
2021/03/21 00:16:14;;;;;;;10.52;6.63;;;6.20;99.40;;;;;;5026138;28;20056;-77
2021/03/21 00:18:42;;;;;;;9.73;6.60;;;6.20;99.40;;;;;;5026281;28;20464;-78
2021/03/21 00:21:09;;;;;;;13.43;8.50;;;6.20;99.40;;;;;;5027825;28;20049;-77
2021/03/21 00:23:36;;;;;;;13.60;8.20;;;6.20;99.30;;;;;;5030528;28;20034;-76
2021/03/21 00:26:02;;;;;;;9.98;6.95;;;6.20;99.30;;;;;;5022222;28;20569;-77
2021/03/21 00:28:31;;;;;;;13.25;8.60;;;6.20;99.30;;;;;;5029654;28;20943;-78
2021/03/21 00:30:58;;;;;;;10.60;8.45;;;6.30;99.30;;;;;;5000903;28;20321;-77
2021/03/21 00:33:29;;;;;;;10.90;7.82;;;6.20;99.30;;;;;;5023109;28;20397;-78
2021/03/21 00:35:59;;;;;;;15.43;9.27;;;6.20;99.20;;;;;;5027156;28;20045;-78
2021/03/21 00:38:32;;;;;;;15.13;9.32;;;6.30;99.20;;;;;;5025862;28;20124;-77
2021/03/21 00:40:59;;;;;;;18.00;8.73;;;6.30;99.10;;;;;;5038143;28;20115;-77
2021/03/21 00:43:26;;;;;;;14.57;8.75;;;6.30;99.10;;;;;;5019505;28;20054;-76
2021/03/21 00:45:53;;;;;;;12.25;7.72;;;6.30;99.00;;;;;;5022576;28;20048;-76
2021/03/21 00:48:21;;;;;;;14.48;8.68;;;6.30;99.00;;;;;;5019898;28;20037;-77
2021/03/21 00:50:48;;;;;;;11.85;7.68;;;6.40;99.00;;;;;;5027658;28;20440;-77
2021/03/21 00:53:15;;;;;;;13.07;8.30;;;6.30;98.90;;;;;;5019159;28;20038;-77
2021/03/21 00:55:41;;;;;;;13.20;8.82;;;6.30;98.90;;;;;;5031254;28;20045;-77
2021/03/21 00:58:07;;;;;;;12.60;8.43;;;6.30;98.80;;;;;;5035193;28;22164;-77
2021/03/21 01:00:54;;;;;;;16.40;8.88;;;6.40;98.90;;;;;;5023915;28;20041;-77
2021/03/21 01:03:21;;;;;;;12.40;8.35;;;6.40;98.90;;;;;;5039331;28;20081;-77
2021/03/21 01:05:58;;;;;;;14.02;8.10;;;6.40;98.80;;;;;;5023562;28;20482;-77
2021/03/21 01:08:27;;;;;;;13.77;8.43;;;6.40;98.80;;;;;;5022628;28;20140;-77
2021/03/21 01:11:09;;;;;;;12.43;8.65;;;6.40;98.80;;;;;;5026765;28;20045;-76
2021/03/21 01:13:39;;;;;;;16.15;9.60;;;6.40;98.80;;;;;;5026604;28;20440;-76
2021/03/21 01:16:08;;;;;;;16.58;9.63;;;6.40;98.80;;;;;;5025345;28;20524;-78
2021/03/21 01:18:34;;;;;;;14.45;7.78;;;6.40;98.80;;;;;;5015132;28;20042;-77
2021/03/21 01:21:03;;;;;;;15.70;8.70;;;6.40;98.80;;;;;;5027264;28;20045;-78
2021/03/21 01:23:29;;;;;;;16.10;9.15;;;6.40;98.70;;;;;;5017565;28;20470;-78
2021/03/21 01:25:55;;;;;;;16.55;8.23;;;6.40;98.60;;;;;;5027890;28;20076;-77
2021/03/21 01:28:50;;;;;;;14.60;8.93;;;6.50;98.60;;;;;;5017271;28;20100;-77
2021/03/21 01:31:22;;;;;;;14.02;8.10;;;6.40;98.60;;;;;;5002312;28;20132;-77
2021/03/21 01:33:49;;;;;;;13.57;8.35;;;6.50;98.60;;;;;;5013191;28;20060;-77
2021/03/21 01:36:23;;;;;;;17.15;9.80;;;6.40;98.60;;;;;;5022257;28;20033;-78
2021/03/21 01:38:51;;;;;;;13.90;8.55;;;6.50;98.60;;;;;;5022396;28;20649;-77
2021/03/21 01:41:29;;;;;;;12.73;8.82;;;6.50;98.50;;;;;;5020018;28;20053;-77
2021/03/21 01:43:55;;;;;;;14.02;8.60;;;6.50;98.80;;;;;;5018141;28;20130;-76
2021/03/21 01:46:29;;;;;;;18.33;9.60;;;6.50;98.50;;;;;;5025859;28;20046;-76
2021/03/21 01:48:56;;;;;;;19.20;10.18;;;6.50;98.50;;;;;;5034306;28;20561;-76
2021/03/21 01:51:32;;;;;;;12.98;9.68;;;6.50;98.50;;;;;;5021742;28;20037;-77
2021/03/21 01:54:03;;;;;;;17.33;9.27;;;6.50;98.50;;;;;;5028151;28;20404;-76
2021/03/21 01:56:32;;;;;;;15.93;9.50;;;6.40;98.70;;;;;;5023985;28;20060;-78
2021/03/21 01:59:05;;;;;;;20.70;11.20;;;6.40;98.80;;;;;;5020291;28;20100;-77
2021/03/21 02:01:30;;;;;;;19.67;11.10;;;6.40;99.00;;;;;;5018392;28;20034;-76
2021/03/21 02:03:57;;;;;;;20.13;10.60;;;6.30;99.00;;;;;;5014632;28;20425;-76
2021/03/21 02:06:37;;;;;;;18.58;10.90;;;6.30;99.10;;;;;;5028408;28;20067;-77
2021/03/21 02:09:24;;;;;;;19.40;9.68;;;6.40;99.30;;;;;;5019739;28;20034;-77
2021/03/21 02:12:27;;;;;;;19.85;10.63;;;6.30;99.50;;;;;;5026047;28;20138;-79
2021/03/21 02:15:18;;;;;;;18.05;9.85;;;6.30;99.50;;;;;;5040908;28;20037;-77
2021/03/21 02:18:12;;;;;;;10.95;6.35;;;6.30;99.60;;;;;;5027430;28;20041;-78
2021/03/21 02:21:17;;;;;;;17.88;7.28;;;6.30;99.60;;;;;;5004016;28;20053;-77
2021/03/21 02:24:21;;;;;;;13.75;7.30;;;6.20;99.60;;;;;;5026965;28;20022;-77
2021/03/21 02:27:28;;;;;;;13.80;7.95;;;6.20;99.60;;;;;;5022654;28;20513;-77
2021/03/21 02:30:14;;;;;;;13.77;7.75;;;6.20;99.50;;;;;;5019538;28;20041;-77
2021/03/21 02:33:11;;;;;;;14.30;8.10;;;6.20;99.50;;;;;;5028094;28;20036;-77
2021/03/21 02:35:59;;;;;;;14.45;7.65;;;6.20;99.30;;;;;;5013775;28;20030;-77
2021/03/21 02:38:40;;;;;;;16.25;7.80;;;6.10;99.20;;;;;;5013453;28;20899;-77
2021/03/21 02:41:15;;;;;;;14.77;8.95;;;6.20;99.20;;;;;;5014950;28;20042;-77
2021/03/21 02:43:56;;;;;;;13.70;7.78;;;6.10;99.00;;;;;;5014222;28;20137;-77
2021/03/21 02:46:33;;;;;;;14.07;8.73;;;6.10;98.90;;;;;;5022383;28;20120;-77
2021/03/21 02:49:16;;;;;;;20.20;8.50;;;6.20;98.80;;;;;;5025899;28;20120;-76
2021/03/21 02:51:50;;;;;;;18.13;7.85;;;6.10;98.80;;;;;;5024528;28;20033;-77
2021/03/21 02:54:30;;;;;;;17.23;7.90;;;6.10;98.80;;;;;;5020189;28;20045;-77
2021/03/21 02:57:08;;;;;;;15.27;7.50;;;6.10;98.80;;;;;;5023944;28;20038;-77
2021/03/21 02:59:39;;;;;;;14.13;7.35;;;6.10;98.70;;;;;;5027155;28;20370;-77
2021/03/21 03:02:12;;;;;;;16.30;7.35;;;6.10;98.70;;;;;;5020794;28;20464;-77
2021/03/21 03:04:47;;;;;;;15.35;6.95;;;6.10;98.60;;;;;;5020710;28;20180;-77
2021/03/21 03:07:16;;;;;;;;;;;6.10;98.50;;;;;;5018520;28;20041;-78
2021/03/21 03:09:52;;;;;;;15.88;6.85;;;6.10;98.50;;;;;;5023782;28;19943;-77
2021/03/21 03:12:34;;;;;;;16.35;6.75;;;6.10;98.60;;;;;;5021540;28;20477;-76
2021/03/21 03:15:09;;;;;;;18.88;6.85;;;6.10;98.50;;;;;;5027480;28;20029;-76
2021/03/21 03:17:53;;;;;;;19.00;7.05;;;6.10;98.40;;;;;;5024794;28;20048;-77
2021/03/21 03:20:38;;;;;;;11.82;7.00;;;6.10;98.40;;;;;;5028267;28;20037;-77
2021/03/21 03:23:11;;;;;;;16.55;6.65;;;6.10;98.40;;;;;;5016405;28;20038;-76
2021/03/21 03:26:03;;;;;;;16.13;6.75;;;6.10;98.40;;;;;;5026046;28;20045;-77
2021/03/21 03:28:38;;;;;;;14.55;6.43;;;6.10;98.30;;;;;;5010940;28;20041;-77
2021/03/21 03:31:13;;;;;;;16.02;6.97;;;6.10;98.40;;;;;;5022064;28;20036;-77
2021/03/21 03:33:39;;;;;;;;;;;6.10;98.40;;;;;;5019178;28;20038;-76
2021/03/21 03:36:08;;;;;;;12.23;5.63;;;6.10;98.40;;;;;;5018346;28;20977;-76
2021/03/21 03:38:36;;;;;;;15.48;5.95;;;6.10;98.40;;;;;;5018802;28;20046;-76
2021/03/21 03:41:11;;;;;;;17.60;5.90;;;6.10;98.30;;;;;;5018884;28;20088;-76
2021/03/21 03:44:09;;;;;;;20.08;6.65;;;6.10;98.30;;;;;;5031713;28;20085;-76
2021/03/21 03:47:02;;;;;;;13.00;5.05;;;6.10;98.30;;;;;;5021361;28;20038;-76
2021/03/21 03:49:47;;;;;;;14.15;5.03;;;6.10;98.30;;;;;;5014160;28;20037;-77
2021/03/21 03:52:41;;;;;;;16.88;5.68;;;6.10;98.30;;;;;;5021386;28;20413;-77
2021/03/21 03:55:34;;;;;;;14.25;5.60;;;6.10;98.40;;;;;;5018164;28;20441;-77
2021/03/21 03:58:07;;;;;;;20.65;5.45;;;6.10;98.50;;;;;;5021339;28;20038;-76
2021/03/21 04:00:40;;;;;;;12.23;4.57;;;6.10;98.60;;;;;;5026382;28;20049;-76
2021/03/21 04:03:28;;;;;;;15.48;4.38;;;6.00;98.60;;;;;;5017853;28;20116;-76
2021/03/21 04:05:59;;;;;;;11.85;4.00;;;6.00;98.80;;;;;;5024096;28;20037;-77
2021/03/21 04:08:43;;;;;;;13.15;4.28;;;6.00;98.40;;;;;;5022592;28;20390;-77
2021/03/21 04:11:32;;;;;;;13.18;3.55;;;6.00;98.40;;;;;;5022062;28;20112;-77
2021/03/21 04:14:11;;;;;;;12.85;4.53;;;6.10;98.30;;;;;;5026358;28;20052;-77
2021/03/21 04:16:45;;;;;;;12.30;3.55;;;6.10;98.40;;;;;;5025085;28;20065;-77
2021/03/21 04:19:13;;;;;;;10.40;2.90;;;6.10;98.40;;;;;;5018421;28;20065;-77
2021/03/21 04:21:45;;;;;;;14.55;3.17;;;6.10;98.40;;;;;;5021492;28;20124;-76
2021/03/21 04:24:27;;;;;;;12.95;2.97;;;6.10;98.40;;;;;;5017726;28;20041;-76
2021/03/21 04:27:16;;;;;;;17.02;3.38;;;6.20;98.40;;;;;;5022917;28;20099;-76
2021/03/21 04:29:59;;;;;;;15.88;3.17;;;6.10;98.50;;;;;;5027761;28;20117;-76
2021/03/21 04:32:48;;;;;;;13.95;2.35;;;6.10;98.40;;;;;;5025813;28;20111;-77
2021/03/21 04:35:46;;;;;;;11.10;2.65;;;6.10;98.30;;;;;;5017656;28;20148;-77
2021/03/21 04:38:21;;;;;;;14.05;2.83;;;6.10;98.10;;;;;;5026975;28;20045;-77
2021/03/21 04:40:48;;;;;;;13.63;2.47;;;6.10;98.20;;;;;;5026534;28;20061;-76
2021/03/21 04:43:23;;;;;;;15.23;2.35;;;6.10;98.10;;;;;;5026704;28;20049;-76
2021/03/21 04:45:56;;;;;;;18.20;2.10;;;6.10;98.10;;;;;;5018509;28;20052;-77
2021/03/21 04:48:27;;;;;;;12.50;2.15;;;6.00;98.10;;;;;;5029538;28;20082;-77
2021/03/21 04:51:18;;;;;;;18.77;2.95;;;6.00;97.90;;;;;;5017072;28;20040;-76
2021/03/21 04:53:46;;;;;;;17.50;2.15;;;6.00;98.00;;;;;;5022279;28;20452;-76
2021/03/21 04:56:29;;;;;;;16.98;3.63;;;6.00;98.10;;;;;;5014516;28;20030;-76
2021/03/21 04:59:17;;;;;;;13.15;2.72;;;6.00;98.10;;;;;;5026820;28;20054;-76
2021/03/21 05:02:09;;;;;;;19.40;2.33;;;5.90;98.00;;;;;;5021173;28;20025;-76
2021/03/21 05:04:58;;;;;;;16.48;2.92;;;5.90;97.60;;;;;;5020633;28;20413;-76
2021/03/21 05:07:27;;;;;;;9.82;1.88;;;5.80;97.60;;;;;;5026327;28;20077;-76
2021/03/21 05:10:01;;;;;;;17.88;2.28;;;5.80;97.30;;;;;;5018069;28;20453;-76
2021/03/21 05:12:37;;;;;;;16.95;2.22;;;5.80;97.20;;;;;;5024690;28;20029;-76
2021/03/21 05:15:10;;;;;;;17.05;1.70;;;5.80;97.10;;;;;;5024497;28;20091;-76
2021/03/21 05:18:15;;;;;;;16.92;2.30;;;5.80;96.80;;;;;;5021399;28;20121;-76
2021/03/21 05:20:46;;;;;;;10.93;2.72;;;5.90;96.60;;;;;;5010816;28;20099;-76
2021/03/21 05:23:38;;;;;;;15.80;2.08;;;5.90;96.40;;;;;;5012784;28;20042;-76
2021/03/21 05:26:19;;;;;;;15.10;2.13;;;5.90;96.00;;;;;;5014135;28;20503;-76
2021/03/21 05:28:57;;;;;;;15.93;2.40;;;5.90;95.90;;;;;;5020096;28;20069;-76
2021/03/21 05:31:25;;;;;;;16.80;1.70;;;5.90;95.60;;;;;;5021128;28;20041;-76
2021/03/21 05:33:51;;;;;;;14.90;2.05;;;5.90;95.50;;;;;;5022258;28;20524;-76
2021/03/21 05:36:34;;;;;;;15.88;2.15;;;6.00;95.20;;;;;;5027990;28;20085;-76
2021/03/21 05:39:07;;;;;;;15.68;2.60;;;6.00;95.00;;;;;;5021868;28;20041;-76
2021/03/21 05:41:56;;;;;;;12.93;2.25;;;6.00;94.60;;;;;;5027780;28;20037;-77
2021/03/21 05:44:38;;;;;;;5.10;1.30;;;6.00;94.50;;;;;;5017111;28;20119;-77
2021/03/21 05:47:32;;;;;;;11.55;1.85;;;6.00;94.30;;;;;;5021486;28;20421;-76
2021/03/21 05:50:32;;;;;;;17.10;2.17;;;6.00;94.70;;;;;;5028092;28;20055;-76
2021/03/21 05:53:04;;;;;;;15.80;2.83;;;6.00;94.20;;;;;;5020245;28;20786;-76
2021/03/21 05:56:18;;;;;;;20.10;2.50;;;6.00;94.10;;;;;;5016506;28;20034;-76
2021/03/21 05:59:14;;;;;;;15.43;2.50;;;6.00;93.40;;;;;;4985789;28;20054;-76
2021/03/21 06:01:48;;;;;;;13.80;2.50;;;6.00;93.60;;;;;;5042134;28;20485;-76
2021/03/21 06:04:36;;;;;;;15.65;2.55;;;6.00;93.60;;;;;;5012819;28;20060;-76
2021/03/21 06:07:29;;;;;;;19.00;3.28;;;6.00;93.60;;;;;;5017407;28;20044;-76
2021/03/21 06:10:01;;;;;;;19.98;3.35;;;6.00;92.80;;;;;;5016959;28;20044;-76
2021/03/21 06:12:53;;;;;;;21.42;3.25;;;6.10;92.40;;;;;;5020280;28;20042;-76
2021/03/21 06:15:47;;;;;;;16.33;2.75;;;6.10;91.70;;;;;;5022054;28;20037;-76
2021/03/21 06:18:12;;;;;;;24.23;3.38;;;6.10;91.70;;;;;;5017897;28;20034;-76
2021/03/21 06:21:06;;;;;;;21.35;3.08;;;6.10;92.20;;;;;;5025024;28;20126;-76
2021/03/21 06:24:13;;;;;;;18.52;3.15;;;6.10;92.20;;;;;;5021683;28;20041;-76
2021/03/21 06:26:44;;;;;;;19.60;3.47;;;6.10;92.00;;;;;;5018905;28;20060;-76
2021/03/21 06:29:23;;;;;;;24.15;4.63;;;6.10;91.70;;;;;;5021814;28;20382;-76
2021/03/21 06:32:14;;;;;;;25.80;4.18;;;6.20;92.10;;;;;;5014882;28;20573;-76
2021/03/21 06:34:49;;;;;;;22.40;3.60;;;6.20;92.20;;;;;;5020405;28;20073;-76
2021/03/21 06:37:35;;;;;;;21.80;3.45;;;6.10;92.20;;;;;;5007486;28;20189;-76
2021/03/21 06:40:33;;;;;;;24.23;3.60;;;6.10;92.50;;;;;;5015509;28;20137;-76
2021/03/21 06:43:27;;;;;;;19.38;4.13;;;6.10;92.20;;;;;;5020867;28;20107;-76
2021/03/21 06:46:02;;;;;;;28.15;4.95;;;6.20;91.80;;;;;;5023983;28;20057;-76
2021/03/21 06:48:28;;;;;;;26.45;4.15;;;6.10;91.20;;;;;;5023808;28;20053;-76
2021/03/21 06:51:19;;;;;;;21.38;3.67;;;6.10;91.20;;;;;;5025003;28;20425;-76
2021/03/21 06:53:52;;;;;;;20.77;4.00;;;6.10;91.10;;;;;;5015460;28;20034;-76
2021/03/21 06:56:32;;;;;;;24.38;3.65;;;6.10;91.00;;;;;;5018036;28;20048;-76
2021/03/21 06:59:36;;;;;;;26.20;5.20;;;6.10;90.00;;;;;;5025391;28;20049;-76
2021/03/21 07:02:24;;;;;;;34.10;5.10;;;6.10;89.70;;;;;;5031329;28;20442;-76
2021/03/21 07:05:08;;;;;;;25.50;4.95;;;6.10;89.90;;;;;;5015847;28;20111;-76
2021/03/21 07:07:55;;;;;;;25.88;5.28;;;6.00;90.20;;;;;;5014828;28;20041;-76
2021/03/21 07:10:39;;;;;;;26.70;4.55;;;6.00;89.50;;;;;;5012693;28;20034;-76
2021/03/21 07:13:50;;;;;;;31.23;5.15;;;6.10;88.50;;;;;;5016546;28;20052;-76
2021/03/21 07:16:52;;;;;;;30.60;4.97;;;6.00;89.20;;;;;;4991364;28;20046;-76
2021/03/21 07:19:33;;;;;;;29.08;5.00;;;6.00;88.70;;;;;;5020047;28;20085;-76
2021/03/21 07:22:27;;;;;;;35.42;5.38;;;6.00;89.80;;;;;;5016805;28;20478;-76
2021/03/21 07:25:04;;;;;;;30.45;4.32;;;6.10;88.70;;;;;;5013969;28;20121;-77
2021/03/21 07:27:58;;;;;;;28.30;5.50;;;6.10;88.80;;;;;;5015190;28;20038;-77
2021/03/21 07:30:39;;;;;;;27.58;5.07;;;6.10;89.10;;;;;;5018757;28;20054;-77
2021/03/21 07:33:23;;;;;;;32.22;5.38;;;6.20;87.10;;;;;;5016598;28;20029;-77
2021/03/21 07:36:11;;;;;;;26.80;5.25;;;6.20;87.20;;;;;;5019238;28;20125;-76
2021/03/21 07:38:52;;;;;;;33.03;5.57;;;6.30;88.40;;;;;;5019966;28;20402;-76
2021/03/21 07:41:23;;;;;;;35.33;5.90;;;6.30;88.80;;;;;;5018995;28;20038;-76
2021/03/21 07:44:28;;;;;;;32.55;5.43;;;6.40;88.60;;;;;;5024058;28;20058;-76
2021/03/21 07:47:11;;;;;;;25.30;4.45;;;6.40;87.80;;;;;;5023034;28;20041;-76
2021/03/21 07:49:58;;;;;;;29.42;5.80;;;6.40;88.20;;;;;;5019174;28;20476;-76
2021/03/21 07:52:40;;;;;;;34.60;4.78;;;6.40;89.10;;;;;;5025089;28;20076;-76
2021/03/21 07:55:20;;;;;;;30.05;5.40;;;6.40;89.10;;;;;;5019204;28;20040;-77
2021/03/21 07:58:13;;;;;;;28.10;5.13;;;6.40;88.80;;;;;;5021773;28;20041;-76
2021/03/21 08:00:40;;;;;;;28.17;4.80;;;6.40;88.20;;;;;;5025134;28;20121;-76
2021/03/21 08:03:11;;;;;;;23.02;4.80;;;6.50;88.40;;;;;;5036591;28;20498;-76
2021/03/21 08:05:37;;;;;;;32.72;6.40;;;6.60;87.60;;;;;;5023800;28;20038;-77
2021/03/21 08:08:04;;;;;;;28.00;5.72;;;6.60;87.10;;;;;;5016954;28;20405;-77
2021/03/21 08:10:35;;;;;;;35.53;6.13;;;6.60;86.00;;;;;;5019337;28;20488;-77
2021/03/21 08:13:19;;;;;;;32.97;5.88;;;6.70;86.80;;;;;;5015395;28;20551;-77
2021/03/21 08:15:45;;;;;;;26.73;5.13;;;6.70;84.70;;;;;;5024975;28;20473;-77
2021/03/21 08:18:14;;;;;;;32.13;5.60;;;6.80;84.90;;;;;;5019944;28;20030;-77
2021/03/21 08:20:48;;;;;;;31.20;6.13;;;6.80;85.50;;;;;;5020440;28;20190;-77
2021/03/21 08:23:22;;;;;;;39.60;5.73;;;6.90;85.50;;;;;;5018167;28;20455;-77
2021/03/21 08:25:51;;;;;;;28.38;5.70;;;7.00;83.70;;;;;;5020843;28;20053;-77
2021/03/21 08:28:19;;;;;;;19.40;3.25;;;7.00;83.40;;;;;;5017316;28;20466;-77
2021/03/21 08:30:47;;;;;;;35.17;7.43;;;7.10;82.80;;;;;;5024800;28;20034;-77
2021/03/21 08:33:26;;;;;;;41.65;6.43;;;7.10;83.70;;;;;;5025794;28;20127;-77
2021/03/21 08:36:06;;;;;;;32.65;6.95;;;7.20;83.10;;;;;;5018241;28;20049;-77
2021/03/21 08:38:32;;;;;;;28.73;5.47;;;7.20;82.90;;;;;;5021324;28;20133;-77
2021/03/21 08:41:03;;;;;;;36.38;6.22;;;7.30;83.40;;;;;;5019529;28;20666;-77
2021/03/21 08:43:33;;;;;;;30.63;5.30;;;7.30;82.90;;;;;;5030223;28;20042;-77
2021/03/21 08:46:02;;;;;;;27.73;5.10;;;7.30;81.60;;;;;;5042110;28;20120;-77
2021/03/21 08:48:38;;;;;;;33.95;5.18;;;7.30;81.70;;;;;;5027952;28;20041;-76
2021/03/21 08:51:04;;;;;;;30.92;4.97;;;7.30;82.00;;;;;;5022702;28;20038;-76
2021/03/21 08:53:35;;;;;;;34.05;5.70;;;7.30;81.00;;;;;;5020842;28;20064;-76
2021/03/21 08:56:23;;;;;;;29.65;5.72;;;7.30;80.60;;;;;;5019339;28;20034;-77
2021/03/21 08:59:21;;;;;;;28.15;5.53;;;7.20;79.50;;;;;;5023515;28;20081;-77
2021/03/21 09:02:02;;;;;;;35.10;5.80;;;7.30;79.20;;;;;;5016768;28;20549;-76
2021/03/21 09:04:29;;;;;;;34.42;6.82;;;7.20;80.10;;;;;;5022857;28;20041;-76
2021/03/21 09:07:10;;;;;;;37.42;7.03;;;7.20;80.60;;;;;;5013065;28;20124;-76
2021/03/21 09:09:39;;;;;;;28.38;6.05;;;7.30;80.90;;;;;;5014048;28;20083;-77
2021/03/21 09:12:23;;;;;;;30.60;6.22;;;7.40;80.60;;;;;;5028312;28;20037;-76
2021/03/21 09:14:50;;;;;;;30.08;5.95;;;7.50;79.50;;;;;;5018882;28;20034;-76
2021/03/21 09:17:22;;;;;;;29.35;5.32;;;7.40;79.30;;;;;;5020540;28;20053;-76
2021/03/21 09:19:50;;;;;;;35.47;6.07;;;7.40;79.20;;;;;;5015876;28;20540;-76
2021/03/21 09:22:32;;;;;;;37.75;6.68;;;7.40;79.20;;;;;;5028829;28;20033;-76
2021/03/21 09:25:00;;;;;;;29.10;6.32;;;7.60;79.20;;;;;;5044030;28;20053;-76
2021/03/21 09:27:36;;;;;;;27.95;5.60;;;7.60;78.70;;;;;;5030289;28;20057;-76
2021/03/21 09:30:11;;;;;;;27.55;5.35;;;7.50;78.10;;;;;;5023180;28;20065;-76
2021/03/21 09:32:38;;;;;;;29.63;6.35;;;7.60;78.60;;;;;;5014929;28;20054;-76
2021/03/21 09:35:28;;;;;;;28.48;5.75;;;7.70;78.10;;;;;;5014088;28;20057;-76
2021/03/21 09:37:56;;;;;;;28.65;5.13;;;7.80;76.40;;;;;;5021232;28;20046;-76
2021/03/21 09:40:27;;;;;;;28.30;5.45;;;7.90;77.60;;;;;;5029806;28;20428;-76
2021/03/21 09:42:53;;;;;;;39.22;7.28;;;8.00;77.40;;;;;;5028495;28;20110;-76
2021/03/21 09:45:20;;;;;;;28.38;5.45;;;8.10;77.50;;;;;;5031822;28;20516;-76
2021/03/21 09:48:00;;;;;;;34.67;6.05;;;8.10;77.20;;;;;;5019576;28;20507;-76
2021/03/21 09:50:53;;;;;;;31.55;6.13;;;8.10;76.90;;;;;;5030719;28;20068;-77
2021/03/21 09:53:28;;;;;;;31.23;5.72;;;8.00;77.00;;;;;;5021039;28;20107;-76
2021/03/21 09:55:58;;;;;;;32.60;5.65;;;7.90;77.20;;;;;;5029734;28;20124;-77
2021/03/21 09:58:42;;;;;;;32.60;5.40;;;7.90;77.90;;;;;;5013410;28;20073;-77
2021/03/21 10:01:44;;;;;;;25.23;5.40;;;7.70;76.00;;;;;;5018574;28;20108;-77
2021/03/21 10:04:27;;;;;;;32.67;6.95;;;7.80;77.50;;;;;;5009857;28;20077;-77
2021/03/21 10:06:59;;;;;;;28.80;4.60;;;7.70;76.70;;;;;;5015820;28;20478;-77
2021/03/21 10:09:29;;;;;;;30.00;5.70;;;7.70;77.20;;;;;;5027115;28;20057;-77
2021/03/21 10:12:04;;;;;;;33.25;6.72;;;7.70;76.50;;;;;;5043351;28;20057;-77
2021/03/21 10:14:30;;;;;;;25.77;5.50;;;7.70;76.40;;;;;;5025275;28;20493;-76
2021/03/21 10:17:19;;;;;;;35.33;6.60;;;7.80;75.50;;;;;;5016638;28;20054;-76
2021/03/21 10:19:48;;;;;;;35.10;6.72;;;7.80;75.30;;;;;;5012591;28;20061;-76
2021/03/21 10:22:20;;;;;;;33.65;5.43;;;7.80;75.80;;;;;;5013674;28;20725;-76
2021/03/21 10:24:48;;;;;;;28.67;5.68;;;7.80;75.80;;;;;;5025116;28;20049;-76
2021/03/21 10:27:27;;;;;;;30.45;5.82;;;7.80;75.60;;;;;;5027813;28;20056;-75
2021/03/21 10:30:05;;;;;;;30.35;5.43;;;7.80;74.10;;;;;;5028378;28;20079;-77
2021/03/21 10:32:32;;;;;;;24.05;5.55;;;7.80;72.80;;;;;;5027901;28;20113;-76
2021/03/21 10:34:59;;;;;;;27.20;5.13;;;7.80;73.80;;;;;;5011802;28;20160;-75
2021/03/21 10:37:58;;;;;;;33.17;5.25;;;7.80;74.30;;;;;;5013436;28;20042;-76
2021/03/21 10:40:23;;;;;;;29.15;5.35;;;7.90;74.20;;;;;;5029523;28;20052;-76
2021/03/21 10:42:59;;;;;;;35.33;6.13;;;7.90;75.70;;;;;;5026450;28;20502;-76
2021/03/21 10:45:46;;;;;;;33.50;6.35;;;8.00;76.00;;;;;;5022197;28;20055;-77
2021/03/21 10:48:15;;;;;;;32.63;6.80;;;7.90;74.80;;;;;;5017049;28;20612;-75
2021/03/21 10:50:53;;;;;;;31.55;5.93;;;7.80;74.40;;;;;;5026335;28;20407;-75
2021/03/21 10:53:24;;;;;;;33.90;6.78;;;7.80;73.60;;;;;;5017035;28;20480;-75
2021/03/21 10:56:20;;;;;;;30.60;5.97;;;7.70;75.60;;;;;;5023538;28;20048;-78
2021/03/21 10:58:46;;;;;;;31.67;6.05;;;7.70;73.60;;;;;;5019924;28;20330;-76
2021/03/21 11:01:24;;;;;;;30.52;5.43;;;7.70;75.10;;;;;;5020357;28;20041;-80
2021/03/21 11:04:00;;;;;;;27.92;4.80;;;7.80;74.00;;;;;;5028821;28;20064;-78
2021/03/21 11:06:32;;;;;;;29.02;6.00;;;7.90;74.50;;;;;;5015406;28;21041;-76
2021/03/21 11:09:11;;;;;;;33.92;6.03;;;7.80;74.10;;;;;;5029055;28;20050;-77
2021/03/21 11:11:40;;;;;;;29.70;5.93;;;8.00;73.10;;;;;;5023830;28;20386;-77
2021/03/21 11:14:21;;;;;;;34.40;5.47;;;8.00;73.20;;;;;;5020386;28;20030;-77
2021/03/21 11:17:00;;;;;;;29.45;5.60;;;8.00;72.80;;;;;;5022635;28;20045;-77
2021/03/21 11:19:34;;;;;;;33.67;5.90;;;7.90;73.30;;;;;;5020731;28;20030;-77
2021/03/21 11:22:17;;;;;;;36.00;6.00;;;7.90;73.10;;;;;;5021272;28;20682;-77
2021/03/21 11:24:44;;;;;;;28.73;5.65;;;7.80;72.50;;;;;;5023581;28;20390;-76
2021/03/21 11:27:23;;;;;;;28.75;5.72;;;7.80;72.70;;;;;;5028426;28;20041;-77
2021/03/21 11:29:49;;;;;;;34.92;5.50;;;7.90;73.00;;;;;;5031544;28;20124;-77
2021/03/21 11:32:33;;;;;;;34.13;6.47;;;7.90;73.40;;;;;;5011565;28;20048;-76
2021/03/21 11:35:14;;;;;;;31.05;5.43;;;7.90;72.10;;;;;;5015124;28;20045;-78
2021/03/21 11:37:43;;;;;;;31.90;6.10;;;8.00;70.50;;;;;;5030315;28;20053;-76
2021/03/21 11:40:28;;;;;;;32.72;5.38;;;8.00;70.60;;;;;;5031686;28;20078;-78
2021/03/21 11:43:19;;;;;;;32.28;6.43;;;8.00;70.80;;;;;;5023865;28;20156;-78
2021/03/21 11:45:46;;;;;;;31.83;6.15;;;8.10;70.20;;;;;;5033394;28;20045;-77
2021/03/21 11:48:30;;;;;;;25.70;5.28;;;8.10;71.90;;;;;;5029236;28;20033;-79
2021/03/21 11:50:58;;;;;;;33.88;6.80;;;8.10;70.20;;;;;;5023033;28;20064;-77
2021/03/21 11:53:29;;;;;;;30.35;5.82;;;8.20;71.20;;;;;;5024856;28;20045;-76
2021/03/21 11:56:20;;;;;;;31.63;5.43;;;8.30;70.90;;;;;;5023708;28;20425;-78
2021/03/21 11:59:05;;;;;;;30.88;5.55;;;8.30;70.20;;;;;;5029747;28;20397;-79
2021/03/21 12:01:42;;;;;;;24.48;5.40;;;8.20;69.60;;;;;;5025048;28;20594;-77
2021/03/21 12:04:17;;;;;;;25.90;5.25;;;8.20;70.40;;;;;;5022559;28;20037;-78
2021/03/21 12:06:51;;;;;;;24.08;5.03;;;8.20;70.40;;;;;;5018037;28;20482;-77
2021/03/21 12:09:31;;;;;;;35.77;6.40;;;8.20;70.10;;;;;;5017000;28;20033;-77
2021/03/21 12:12:25;;;;;;;26.55;5.38;;;8.20;69.00;;;;;;5023054;28;20744;-77
2021/03/21 12:14:51;;;;;;;33.58;5.85;;;8.10;69.10;;;;;;5025431;28;20033;-77
2021/03/21 12:17:23;;;;;;;23.38;5.13;;;8.00;69.00;;;;;;5030771;28;20496;-76
2021/03/21 12:19:49;;;;;;;22.05;4.88;;;8.10;68.70;;;;;;5016899;28;20489;-78
2021/03/21 12:22:39;;;;;;;25.80;4.80;;;8.10;67.80;;;;;;5026893;28;20049;-76
2021/03/21 12:25:29;;;;;;;30.25;4.80;;;8.20;68.20;;;;;;5021192;28;20057;-76
2021/03/21 12:28:16;;;;;;;28.55;5.65;;;8.30;67.40;;;;;;5021822;28;20092;-76
2021/03/21 12:30:45;;;;;;;23.50;4.80;;;8.30;67.70;;;;;;5028523;28;20087;-76
2021/03/21 12:33:15;;;;;;;24.65;5.15;;;8.30;67.90;;;;;;5026566;28;20116;-76
2021/03/21 12:35:42;;;;;;;23.45;4.97;;;8.40;67.30;;;;;;5018514;28;20044;-76
2021/03/21 12:38:35;;;;;;;26.60;5.07;;;8.30;67.00;;;;;;5028000;28;20049;-77
2021/03/21 12:41:31;;;;;;;19.05;3.72;;;8.20;66.50;;;;;;5027182;28;20068;-77
2021/03/21 12:44:19;;;;;;;24.40;5.28;;;8.20;66.40;;;;;;5012089;28;20085;-77
2021/03/21 12:47:00;;;;;;;24.58;5.63;;;8.30;68.00;;;;;;5027040;28;20069;-78
2021/03/21 12:49:38;;;;;;;27.13;5.38;;;8.30;69.40;;;;;;5016602;28;20052;-77
2021/03/21 12:52:07;;;;;;;27.00;4.97;;;8.50;68.70;;;;;;5021292;28;20088;-76
2021/03/21 12:54:34;;;;;;;23.30;4.53;;;8.60;69.20;;;;;;5022790;28;20037;-75
2021/03/21 12:57:00;;;;;;;24.30;6.00;;;8.60;67.30;;;;;;5028863;28;20050;-75
2021/03/21 12:59:26;;;;;;;31.77;8.07;;;8.60;67.80;;;;;;5020847;28;20029;-75
2021/03/21 13:01:52;;;;;;;30.27;5.93;;;8.70;68.10;;;;;;5026361;28;20051;-75
2021/03/21 13:04:18;;;;;;;23.92;4.72;;;8.60;67.40;;;;;;5024199;28;20609;-76
2021/03/21 13:06:44;;;;;;;25.50;5.68;;;8.60;67.70;;;;;;5016389;28;20490;-76
2021/03/21 13:09:10;;;;;;;26.85;6.00;;;8.50;68.10;;;;;;5026277;28;20069;-76
2021/03/21 13:11:37;;;;;;;21.20;4.95;;;8.60;68.00;;;;;;5020231;28;20163;-76
2021/03/21 13:14:05;;;;;;;30.48;5.25;;;8.40;67.30;;;;;;5032217;28;20049;-75
2021/03/21 13:16:32;;;;;;;23.45;5.28;;;8.50;67.90;;;;;;5033594;28;20496;-76
2021/03/21 13:18:58;;;;;;;29.95;5.57;;;8.40;67.70;;;;;;5025395;28;20117;-76
2021/03/21 13:21:24;;;;;;;28.20;5.45;;;8.30;68.20;;;;;;5022401;28;20053;-76
2021/03/21 13:23:54;;;;;;;27.08;5.05;;;8.30;68.50;;;;;;5025880;28;20045;-76
2021/03/21 13:26:32;;;;;;;26.23;5.15;;;8.30;69.20;;;;;;5003100;28;20053;-76
2021/03/21 13:29:13;;;;;;;29.35;5.68;;;8.20;68.00;;;;;;5008671;28;20049;-76
2021/03/21 13:31:57;;;;;;;27.38;6.05;;;8.20;68.90;;;;;;5022551;28;20124;-76
2021/03/21 13:34:38;;;;;;;23.48;4.60;;;8.20;68.70;;;;;;5017544;28;20080;-77
2021/03/21 13:37:17;;;;;;;19.98;5.10;;;8.10;68.50;;;;;;5009394;28;20046;-76
2021/03/21 13:40:02;;;;;;;30.38;5.45;;;8.00;68.90;;;;;;5017732;28;21040;-77
2021/03/21 13:42:40;;;;;;;;;;;8.00;69.70;;;;;;5019143;28;20461;-76